sensor_id;sensor_type;location;lat;lon;timestamp;P1;durP1;ratioP1;P2;durP2;ratioP2
1523;SDS011;755;53.658;10.118;2023-04-25T00:06:17;13.77;;;5.10;;
1523;SDS011;755;53.658;10.118;2023-04-25T00:16:20;24.67;;;5.82;;
1523;SDS011;755;53.658;10.118;2023-04-25T00:26:23;25.98;;;5.00;;
1523;SDS011;755;53.658;10.118;2023-04-25T00:36:27;29.17;;;4.45;;
1523;SDS011;755;53.658;10.118;2023-04-25T00:46:30;29.27;;;4.30;;
1523;SDS011;755;53.658;10.118;2023-04-25T00:56:34;32.95;;;4.75;;
1523;SDS011;755;53.658;10.118;2023-04-25T01:06:36;26.23;;;4.55;;
1523;SDS011;755;53.658;10.118;2023-04-25T01:16:39;28.40;;;5.28;;
1523;SDS011;755;53.658;10.118;2023-04-25T01:26:44;33.65;;;5.75;;
1523;SDS011;755;53.658;10.118;2023-04-25T01:46:53;35.13;;;4.95;;
1523;SDS011;755;53.658;10.118;2023-04-25T01:56:56;32.72;;;5.78;;
1523;SDS011;755;53.658;10.118;2023-04-25T02:07:00;39.03;;;4.70;;
1523;SDS011;755;53.658;10.118;2023-04-25T02:17:02;35.45;;;4.72;;
1523;SDS011;755;53.658;10.118;2023-04-25T02:27:05;39.40;;;5.25;;
1523;SDS011;755;53.658;10.118;2023-04-25T02:37:07;39.75;;;4.15;;
1523;SDS011;755;53.658;10.118;2023-04-25T02:47:11;28.92;;;4.18;;
1523;SDS011;755;53.658;10.118;2023-04-25T02:57:13;24.50;;;3.72;;
1523;SDS011;755;53.658;10.118;2023-04-25T03:07:16;28.67;;;4.10;;
1523;SDS011;755;53.658;10.118;2023-04-25T03:17:18;32.13;;;4.20;;
1523;SDS011;755;53.658;10.118;2023-04-25T03:27:22;27.80;;;3.83;;
1523;SDS011;755;53.658;10.118;2023-04-25T03:37:24;23.73;;;4.10;;
1523;SDS011;755;53.658;10.118;2023-04-25T03:47:27;33.42;;;4.80;;
1523;SDS011;755;53.658;10.118;2023-04-25T03:57:29;23.10;;;3.45;;
1523;SDS011;755;53.658;10.118;2023-04-25T04:07:32;18.65;;;3.00;;
1523;SDS011;755;53.658;10.118;2023-04-25T04:17:39;25.25;;;3.50;;
1523;SDS011;755;53.658;10.118;2023-04-25T04:27:43;34.75;;;4.20;;
1523;SDS011;755;53.658;10.118;2023-04-25T04:37:46;25.20;;;3.45;;
1523;SDS011;755;53.658;10.118;2023-04-25T04:47:49;23.23;;;3.55;;
1523;SDS011;755;53.658;10.118;2023-04-25T04:57:51;27.45;;;4.35;;
1523;SDS011;755;53.658;10.118;2023-04-25T05:07:54;29.83;;;3.38;;
1523;SDS011;755;53.658;10.118;2023-04-25T05:17:56;24.45;;;3.95;;
1523;SDS011;755;53.658;10.118;2023-04-25T05:28:00;14.63;;;3.10;;
1523;SDS011;755;53.658;10.118;2023-04-25T05:38:01;18.02;;;3.13;;
1523;SDS011;755;53.658;10.118;2023-04-25T05:48:05;17.00;;;3.17;;
1523;SDS011;755;53.658;10.118;2023-04-25T05:58:07;23.80;;;3.53;;
1523;SDS011;755;53.658;10.118;2023-04-25T06:08:10;20.88;;;2.88;;
1523;SDS011;755;53.658;10.118;2023-04-25T06:18:12;18.17;;;3.03;;
1523;SDS011;755;53.658;10.118;2023-04-25T06:28:15;15.98;;;2.72;;
1523;SDS011;755;53.658;10.118;2023-04-25T06:38:17;24.80;;;2.90;;
1523;SDS011;755;53.658;10.118;2023-04-25T06:48:21;19.38;;;3.00;;
1523;SDS011;755;53.658;10.118;2023-04-25T06:58:23;24.75;;;3.40;;
1523;SDS011;755;53.658;10.118;2023-04-25T07:08:27;17.88;;;3.45;;
1523;SDS011;755;53.658;10.118;2023-04-25T07:18:30;19.88;;;3.10;;
1523;SDS011;755;53.658;10.118;2023-04-25T07:28:33;19.67;;;3.08;;
1523;SDS011;755;53.658;10.118;2023-04-25T07:38:35;16.65;;;2.25;;
1523;SDS011;755;53.658;10.118;2023-04-25T07:48:38;15.48;;;2.08;;
1523;SDS011;755;53.658;10.118;2023-04-25T07:58:40;14.30;;;2.05;;
1523;SDS011;755;53.658;10.118;2023-04-25T08:08:44;15.20;;;2.53;;
1523;SDS011;755;53.658;10.118;2023-04-25T08:18:47;12.90;;;1.85;;
1523;SDS011;755;53.658;10.118;2023-04-25T08:28:50;12.20;;;2.63;;
1523;SDS011;755;53.658;10.118;2023-04-25T08:38:52;12.55;;;2.30;;
1523;SDS011;755;53.658;10.118;2023-04-25T09:10:44;17.08;;;2.70;;
1523;SDS011;755;53.658;10.118;2023-04-25T09:20:48;13.18;;;2.55;;
1523;SDS011;755;53.658;10.118;2023-04-25T09:30:53;25.38;;;2.28;;
1523;SDS011;755;53.658;10.118;2023-04-25T09:40:56;11.23;;;2.00;;
1523;SDS011;755;53.658;10.118;2023-04-25T09:51:06;8.85;;;1.55;;
1523;SDS011;755;53.658;10.118;2023-04-25T10:01:09;12.45;;;1.73;;
1523;SDS011;755;53.658;10.118;2023-04-25T10:11:14;12.20;;;1.80;;
1523;SDS011;755;53.658;10.118;2023-04-25T10:21:16;13.38;;;1.50;;
1523;SDS011;755;53.658;10.118;2023-04-25T10:31:21;9.27;;;1.30;;
1523;SDS011;755;53.658;10.118;2023-04-25T10:41:23;11.23;;;1.65;;
1523;SDS011;755;53.658;10.118;2023-04-25T10:51:27;16.60;;;1.88;;
1523;SDS011;755;53.658;10.118;2023-04-25T11:01:35;7.97;;;1.42;;
1523;SDS011;755;53.658;10.118;2023-04-25T11:11:51;18.23;;;2.30;;
1523;SDS011;755;53.658;10.118;2023-04-25T11:23:07;12.38;;;0.90;;
1523;SDS011;755;53.658;10.118;2023-04-25T11:34:19;7.50;;;1.08;;
1523;SDS011;755;53.658;10.118;2023-04-25T11:44:33;7.85;;;1.40;;
1523;SDS011;755;53.658;10.118;2023-04-25T11:54:39;10.00;;;1.08;;
1523;SDS011;755;53.658;10.118;2023-04-25T12:04:42;7.57;;;0.87;;
1523;SDS011;755;53.658;10.118;2023-04-25T12:14:47;12.68;;;1.70;;
1523;SDS011;755;53.658;10.118;2023-04-25T12:24:49;8.32;;;1.25;;
1523;SDS011;755;53.658;10.118;2023-04-25T12:34:54;8.73;;;1.23;;
1523;SDS011;755;53.658;10.118;2023-04-25T12:44:57;13.50;;;1.83;;
1523;SDS011;755;53.658;10.118;2023-04-25T12:55:03;12.90;;;1.58;;
1523;SDS011;755;53.658;10.118;2023-04-25T13:05:07;7.85;;;1.15;;
1523;SDS011;755;53.658;10.118;2023-04-25T13:15:15;8.47;;;1.40;;
1523;SDS011;755;53.658;10.118;2023-04-25T13:25:18;11.35;;;2.05;;
1523;SDS011;755;53.658;10.118;2023-04-25T13:35:25;9.18;;;1.50;;
1523;SDS011;755;53.658;10.118;2023-04-25T13:45:29;16.88;;;1.63;;
1523;SDS011;755;53.658;10.118;2023-04-25T13:55:35;12.05;;;1.73;;
1523;SDS011;755;53.658;10.118;2023-04-25T14:05:49;10.70;;;1.63;;
1523;SDS011;755;53.658;10.118;2023-04-25T14:16:22;13.45;;;2.15;;
1523;SDS011;755;53.658;10.118;2023-04-25T14:26:29;9.97;;;1.70;;
1523;SDS011;755;53.658;10.118;2023-04-25T14:36:35;8.13;;;1.60;;
1523;SDS011;755;53.658;10.118;2023-04-25T14:46:38;12.80;;;1.40;;
1523;SDS011;755;53.658;10.118;2023-04-25T14:56:53;12.23;;;1.52;;
1523;SDS011;755;53.658;10.118;2023-04-25T15:07:00;16.85;;;1.48;;
1523;SDS011;755;53.658;10.118;2023-04-25T15:17:27;6.15;;;0.77;;
1523;SDS011;755;53.658;10.118;2023-04-25T15:27:41;4.55;;;0.73;;
1523;SDS011;755;53.658;10.118;2023-04-25T15:37:54;9.93;;;1.23;;
1523;SDS011;755;53.658;10.118;2023-04-25T15:58:06;16.23;;;1.65;;
1523;SDS011;755;53.658;10.118;2023-04-25T16:08:08;15.43;;;1.63;;
1523;SDS011;755;53.658;10.118;2023-04-25T16:18:11;11.05;;;1.60;;
1523;SDS011;755;53.658;10.118;2023-04-25T16:28:13;11.55;;;1.55;;
1523;SDS011;755;53.658;10.118;2023-04-25T16:38:16;12.60;;;1.60;;
1523;SDS011;755;53.658;10.118;2023-04-25T16:48:18;6.97;;;1.08;;
1523;SDS011;755;53.658;10.118;2023-04-25T16:58:24;16.55;;;1.42;;
1523;SDS011;755;53.658;10.118;2023-04-25T17:08:28;4.32;;;0.80;;
1523;SDS011;755;53.658;10.118;2023-04-25T17:18:31;6.45;;;1.33;;
1523;SDS011;755;53.658;10.118;2023-04-25T17:28:33;16.73;;;1.85;;
1523;SDS011;755;53.658;10.118;2023-04-25T17:38:36;10.77;;;1.80;;
1523;SDS011;755;53.658;10.118;2023-04-25T17:48:38;28.27;;;2.08;;
1523;SDS011;755;53.658;10.118;2023-04-25T17:58:41;9.00;;;1.08;;
1523;SDS011;755;53.658;10.118;2023-04-25T18:08:44;8.00;;;1.27;;
1523;SDS011;755;53.658;10.118;2023-04-25T18:18:47;12.43;;;1.70;;
1523;SDS011;755;53.658;10.118;2023-04-25T18:28:51;8.15;;;1.48;;
1523;SDS011;755;53.658;10.118;2023-04-25T18:38:55;12.68;;;1.40;;
1523;SDS011;755;53.658;10.118;2023-04-25T18:48:57;10.63;;;1.67;;
1523;SDS011;755;53.658;10.118;2023-04-25T18:59:01;7.13;;;1.35;;
1523;SDS011;755;53.658;10.118;2023-04-25T19:09:03;14.90;;;1.95;;
1523;SDS011;755;53.658;10.118;2023-04-25T19:19:08;16.63;;;1.77;;
1523;SDS011;755;53.658;10.118;2023-04-25T19:29:11;7.47;;;1.75;;
1523;SDS011;755;53.658;10.118;2023-04-25T19:39:15;9.45;;;1.85;;
1523;SDS011;755;53.658;10.118;2023-04-25T19:49:18;10.75;;;1.58;;
1523;SDS011;755;53.658;10.118;2023-04-25T19:59:22;10.55;;;1.83;;
1523;SDS011;755;53.658;10.118;2023-04-25T20:09:25;9.30;;;1.70;;
1523;SDS011;755;53.658;10.118;2023-04-25T20:19:28;10.48;;;1.30;;
1523;SDS011;755;53.658;10.118;2023-04-25T20:29:30;7.28;;;1.50;;
1523;SDS011;755;53.658;10.118;2023-04-25T20:39:34;10.68;;;1.42;;
1523;SDS011;755;53.658;10.118;2023-04-25T20:49:36;15.45;;;1.65;;
1523;SDS011;755;53.658;10.118;2023-04-25T20:59:39;20.73;;;2.25;;
1523;SDS011;755;53.658;10.118;2023-04-25T21:09:41;21.90;;;2.10;;
1523;SDS011;755;53.658;10.118;2023-04-25T21:19:46;8.13;;;1.20;;
1523;SDS011;755;53.658;10.118;2023-04-25T21:29:48;9.63;;;1.13;;
1523;SDS011;755;53.658;10.118;2023-04-25T21:39:51;9.75;;;1.20;;
1523;SDS011;755;53.658;10.118;2023-04-25T21:49:54;23.45;;;1.60;;
1523;SDS011;755;53.658;10.118;2023-04-25T21:59:57;17.83;;;2.10;;
1523;SDS011;755;53.658;10.118;2023-04-25T22:09:59;21.15;;;2.53;;
1523;SDS011;755;53.658;10.118;2023-04-25T22:20:03;23.60;;;2.20;;
1523;SDS011;755;53.658;10.118;2023-04-25T22:30:10;17.08;;;1.45;;
1523;SDS011;755;53.658;10.118;2023-04-25T22:40:14;9.45;;;1.55;;
1523;SDS011;755;53.658;10.118;2023-04-25T22:50:16;11.98;;;1.33;;
1523;SDS011;755;53.658;10.118;2023-04-25T23:00:20;14.10;;;1.48;;
1523;SDS011;755;53.658;10.118;2023-04-25T23:20:29;12.25;;;1.45;;
1523;SDS011;755;53.658;10.118;2023-04-25T23:30:32;11.98;;;1.55;;
1523;SDS011;755;53.658;10.118;2023-04-25T23:40:36;15.10;;;1.33;;
1523;SDS011;755;53.658;10.118;2023-04-25T23:50:38;9.00;;;1.42;;
